sensor_id;sensor_type;location;lat;lon;timestamp;P1;durP1;ratioP1;P2;durP2;ratioP2
15153;SDS011;7677;41.896;25.004;2022-11-20T00:01:30;1.43;;;1.20;;
15153;SDS011;7677;41.896;25.004;2022-11-20T00:03:58;3.93;;;1.50;;
15153;SDS011;7677;41.896;25.004;2022-11-20T00:06:25;3.73;;;1.50;;
15153;SDS011;7677;41.896;25.004;2022-11-20T00:08:54;1.00;;;0.93;;
15153;SDS011;7677;41.896;25.004;2022-11-20T00:11:22;1.17;;;1.07;;
15153;SDS011;7677;41.896;25.004;2022-11-20T00:13:51;1.10;;;0.90;;
15153;SDS011;7677;41.896;25.004;2022-11-20T00:16:20;1.40;;;1.27;;
15153;SDS011;7677;41.896;25.004;2022-11-20T00:18:49;1.07;;;1.00;;
15153;SDS011;7677;41.896;25.004;2022-11-20T00:21:17;1.87;;;1.13;;
15153;SDS011;7677;41.896;25.004;2022-11-20T00:23:45;1.73;;;1.20;;
15153;SDS011;7677;41.896;25.004;2022-11-20T00:26:14;1.27;;;1.10;;
15153;SDS011;7677;41.896;25.004;2022-11-20T00:28:43;1.03;;;1.03;;
15153;SDS011;7677;41.896;25.004;2022-11-20T00:31:11;1.13;;;1.03;;
15153;SDS011;7677;41.896;25.004;2022-11-20T00:33:40;1.00;;;0.90;;
15153;SDS011;7677;41.896;25.004;2022-11-20T00:36:09;1.40;;;1.00;;
15153;SDS011;7677;41.896;25.004;2022-11-20T00:38:37;1.00;;;1.00;;
15153;SDS011;7677;41.896;25.004;2022-11-20T00:41:05;2.23;;;0.90;;
15153;SDS011;7677;41.896;25.004;2022-11-20T00:43:33;1.53;;;0.90;;
15153;SDS011;7677;41.896;25.004;2022-11-20T00:46:01;1.27;;;1.10;;
15153;SDS011;7677;41.896;25.004;2022-11-20T00:48:29;0.97;;;0.97;;
15153;SDS011;7677;41.896;25.004;2022-11-20T00:50:56;3.28;;;1.45;;
15153;SDS011;7677;41.896;25.004;2022-11-20T00:53:25;1.23;;;1.13;;
15153;SDS011;7677;41.896;25.004;2022-11-20T00:55:52;0.80;;;0.80;;
15153;SDS011;7677;41.896;25.004;2022-11-20T00:58:20;1.93;;;1.00;;
15153;SDS011;7677;41.896;25.004;2022-11-20T01:00:48;1.30;;;1.20;;
15153;SDS011;7677;41.896;25.004;2022-11-20T01:03:16;2.53;;;1.60;;
15153;SDS011;7677;41.896;25.004;2022-11-20T01:05:43;1.30;;;1.20;;
15153;SDS011;7677;41.896;25.004;2022-11-20T01:08:10;1.13;;;1.00;;
15153;SDS011;7677;41.896;25.004;2022-11-20T01:10:39;4.60;;;1.33;;
15153;SDS011;7677;41.896;25.004;2022-11-20T01:13:06;1.23;;;1.17;;
15153;SDS011;7677;41.896;25.004;2022-11-20T01:15:50;1.03;;;0.97;;
15153;SDS011;7677;41.896;25.004;2022-11-20T01:18:17;1.60;;;1.50;;
15153;SDS011;7677;41.896;25.004;2022-11-20T01:20:44;2.83;;;1.10;;
15153;SDS011;7677;41.896;25.004;2022-11-20T01:23:11;2.33;;;1.00;;
15153;SDS011;7677;41.896;25.004;2022-11-20T01:25:40;1.90;;;1.07;;
15153;SDS011;7677;41.896;25.004;2022-11-20T01:28:07;2.63;;;1.13;;
15153;SDS011;7677;41.896;25.004;2022-11-20T01:30:34;1.00;;;1.00;;
15153;SDS011;7677;41.896;25.004;2022-11-20T01:33:01;1.30;;;1.30;;
15153;SDS011;7677;41.896;25.004;2022-11-20T01:35:28;1.23;;;1.10;;
15153;SDS011;7677;41.896;25.004;2022-11-20T01:37:55;1.97;;;1.30;;
15153;SDS011;7677;41.896;25.004;2022-11-20T01:40:23;3.03;;;1.10;;
15153;SDS011;7677;41.896;25.004;2022-11-20T01:42:53;1.33;;;1.13;;
15153;SDS011;7677;41.896;25.004;2022-11-20T01:45:52;1.20;;;1.10;;
15153;SDS011;7677;41.896;25.004;2022-11-20T01:48:26;2.97;;;0.93;;
15153;SDS011;7677;41.896;25.004;2022-11-20T01:50:56;1.23;;;1.00;;
15153;SDS011;7677;41.896;25.004;2022-11-20T01:53:25;1.00;;;1.00;;
15153;SDS011;7677;41.896;25.004;2022-11-20T01:55:55;1.30;;;1.20;;
15153;SDS011;7677;41.896;25.004;2022-11-20T01:58:25;1.20;;;1.10;;
15153;SDS011;7677;41.896;25.004;2022-11-20T02:00:55;1.00;;;0.98;;
15153;SDS011;7677;41.896;25.004;2022-11-20T02:03:23;1.37;;;1.10;;
15153;SDS011;7677;41.896;25.004;2022-11-20T02:05:51;3.70;;;0.83;;
15153;SDS011;7677;41.896;25.004;2022-11-20T02:08:20;1.70;;;0.90;;
15153;SDS011;7677;41.896;25.004;2022-11-20T02:10:48;0.82;;;0.82;;
15153;SDS011;7677;41.896;25.004;2022-11-20T02:13:15;1.20;;;0.85;;
15153;SDS011;7677;41.896;25.004;2022-11-20T02:16:01;3.60;;;0.90;;
15153;SDS011;7677;41.896;25.004;2022-11-20T02:18:29;1.25;;;0.88;;
15153;SDS011;7677;41.896;25.004;2022-11-20T02:20:59;1.45;;;0.90;;
15153;SDS011;7677;41.896;25.004;2022-11-20T02:23:30;0.85;;;0.85;;
15153;SDS011;7677;41.896;25.004;2022-11-20T02:26:02;0.90;;;0.90;;
15153;SDS011;7677;41.896;25.004;2022-11-20T02:28:30;0.90;;;0.90;;
15153;SDS011;7677;41.896;25.004;2022-11-20T02:30:57;0.95;;;0.95;;
15153;SDS011;7677;41.896;25.004;2022-11-20T02:33:25;1.75;;;1.00;;
15153;SDS011;7677;41.896;25.004;2022-11-20T02:35:52;1.40;;;0.90;;
15153;SDS011;7677;41.896;25.004;2022-11-20T02:38:19;0.80;;;0.80;;
15153;SDS011;7677;41.896;25.004;2022-11-20T02:40:46;1.02;;;0.80;;
15153;SDS011;7677;41.896;25.004;2022-11-20T02:43:16;1.38;;;0.90;;
15153;SDS011;7677;41.896;25.004;2022-11-20T02:45:43;0.80;;;0.80;;
15153;SDS011;7677;41.896;25.004;2022-11-20T02:48:10;0.88;;;0.88;;
15153;SDS011;7677;41.896;25.004;2022-11-20T02:50:38;0.65;;;0.65;;
15153;SDS011;7677;41.896;25.004;2022-11-20T02:53:06;0.85;;;0.85;;
15153;SDS011;7677;41.896;25.004;2022-11-20T02:55:33;3.25;;;0.98;;
15153;SDS011;7677;41.896;25.004;2022-11-20T02:58:00;1.65;;;1.08;;
15153;SDS011;7677;41.896;25.004;2022-11-20T03:00:29;0.82;;;0.82;;
15153;SDS011;7677;41.896;25.004;2022-11-20T03:02:57;0.80;;;0.80;;
15153;SDS011;7677;41.896;25.004;2022-11-20T03:05:24;3.67;;;0.73;;
15153;SDS011;7677;41.896;25.004;2022-11-20T03:07:51;1.95;;;1.17;;
15153;SDS011;7677;41.896;25.004;2022-11-20T03:10:18;1.67;;;1.50;;
15153;SDS011;7677;41.896;25.004;2022-11-20T03:12:45;0.90;;;0.90;;
15153;SDS011;7677;41.896;25.004;2022-11-20T03:15:13;0.57;;;0.57;;
15153;SDS011;7677;41.896;25.004;2022-11-20T03:17:41;1.65;;;0.80;;
15153;SDS011;7677;41.896;25.004;2022-11-20T03:20:09;4.50;;;0.98;;
15153;SDS011;7677;41.896;25.004;2022-11-20T03:22:37;0.63;;;0.63;;
15153;SDS011;7677;41.896;25.004;2022-11-20T03:25:04;0.90;;;0.90;;
15153;SDS011;7677;41.896;25.004;2022-11-20T03:27:32;1.58;;;0.70;;
15153;SDS011;7677;41.896;25.004;2022-11-20T03:30:00;1.23;;;1.13;;
15153;SDS011;7677;41.896;25.004;2022-11-20T03:32:27;2.65;;;0.80;;
15153;SDS011;7677;41.896;25.004;2022-11-20T03:34:56;1.15;;;0.90;;
15153;SDS011;7677;41.896;25.004;2022-11-20T03:37:23;0.80;;;0.80;;
15153;SDS011;7677;41.896;25.004;2022-11-20T03:39:50;2.20;;;0.73;;
15153;SDS011;7677;41.896;25.004;2022-11-20T03:42:17;0.90;;;0.90;;
15153;SDS011;7677;41.896;25.004;2022-11-20T03:45:02;0.80;;;0.80;;
15153;SDS011;7677;41.896;25.004;2022-11-20T03:47:29;0.80;;;0.80;;
15153;SDS011;7677;41.896;25.004;2022-11-20T03:49:58;1.37;;;1.03;;
15153;SDS011;7677;41.896;25.004;2022-11-20T03:52:25;0.90;;;0.90;;
15153;SDS011;7677;41.896;25.004;2022-11-20T03:54:52;1.03;;;0.93;;
15153;SDS011;7677;41.896;25.004;2022-11-20T03:57:19;1.42;;;1.33;;
15153;SDS011;7677;41.896;25.004;2022-11-20T03:59:46;0.97;;;0.77;;
15153;SDS011;7677;41.896;25.004;2022-11-20T04:02:14;1.70;;;1.10;;
15153;SDS011;7677;41.896;25.004;2022-11-20T04:04:41;0.70;;;0.70;;
15153;SDS011;7677;41.896;25.004;2022-11-20T04:07:09;1.00;;;0.90;;
15153;SDS011;7677;41.896;25.004;2022-11-20T04:09:36;2.03;;;0.90;;
15153;SDS011;7677;41.896;25.004;2022-11-20T04:12:04;1.13;;;1.03;;
15153;SDS011;7677;41.896;25.004;2022-11-20T04:14:31;0.77;;;0.77;;
15153;SDS011;7677;41.896;25.004;2022-11-20T04:16:58;3.23;;;1.00;;
15153;SDS011;7677;41.896;25.004;2022-11-20T04:19:25;0.80;;;0.80;;
15153;SDS011;7677;41.896;25.004;2022-11-20T04:21:52;0.77;;;0.70;;
15153;SDS011;7677;41.896;25.004;2022-11-20T04:24:21;0.80;;;0.80;;
15153;SDS011;7677;41.896;25.004;2022-11-20T04:26:48;0.70;;;0.70;;
15153;SDS011;7677;41.896;25.004;2022-11-20T04:29:15;1.20;;;0.97;;
15153;SDS011;7677;41.896;25.004;2022-11-20T04:31:42;2.67;;;0.90;;
15153;SDS011;7677;41.896;25.004;2022-11-20T04:34:10;1.13;;;0.80;;
15153;SDS011;7677;41.896;25.004;2022-11-20T04:36:38;1.00;;;1.00;;
15153;SDS011;7677;41.896;25.004;2022-11-20T04:39:05;0.73;;;0.73;;
15153;SDS011;7677;41.896;25.004;2022-11-20T04:41:35;0.93;;;0.90;;
15153;SDS011;7677;41.896;25.004;2022-11-20T04:44:03;0.60;;;0.60;;
15153;SDS011;7677;41.896;25.004;2022-11-20T04:46:31;1.47;;;0.83;;
15153;SDS011;7677;41.896;25.004;2022-11-20T04:48:59;0.50;;;0.50;;
15153;SDS011;7677;41.896;25.004;2022-11-20T04:51:26;0.67;;;0.67;;
15153;SDS011;7677;41.896;25.004;2022-11-20T04:53:54;0.70;;;0.70;;
15153;SDS011;7677;41.896;25.004;2022-11-20T04:56:21;2.00;;;1.00;;
15153;SDS011;7677;41.896;25.004;2022-11-20T04:58:49;0.80;;;0.80;;
15153;SDS011;7677;41.896;25.004;2022-11-20T05:01:17;1.53;;;0.93;;
15153;SDS011;7677;41.896;25.004;2022-11-20T05:03:46;1.50;;;0.87;;
15153;SDS011;7677;41.896;25.004;2022-11-20T05:06:14;0.70;;;0.70;;
15153;SDS011;7677;41.896;25.004;2022-11-20T05:08:43;2.07;;;1.13;;
15153;SDS011;7677;41.896;25.004;2022-11-20T05:11:11;1.23;;;0.83;;
15153;SDS011;7677;41.896;25.004;2022-11-20T05:13:39;0.83;;;0.83;;
15153;SDS011;7677;41.896;25.004;2022-11-20T05:16:09;2.63;;;0.87;;
15153;SDS011;7677;41.896;25.004;2022-11-20T05:18:37;0.63;;;0.63;;
15153;SDS011;7677;41.896;25.004;2022-11-20T05:21:05;1.20;;;1.10;;
15153;SDS011;7677;41.896;25.004;2022-11-20T05:23:33;1.10;;;1.00;;
15153;SDS011;7677;41.896;25.004;2022-11-20T05:26:00;4.57;;;1.10;;
15153;SDS011;7677;41.896;25.004;2022-11-20T05:28:28;1.63;;;1.53;;
15153;SDS011;7677;41.896;25.004;2022-11-20T05:31:03;1.90;;;1.20;;
15153;SDS011;7677;41.896;25.004;2022-11-20T05:33:32;1.27;;;0.90;;
15153;SDS011;7677;41.896;25.004;2022-11-20T05:35:59;2.83;;;0.93;;
15153;SDS011;7677;41.896;25.004;2022-11-20T05:38:27;13.53;;;1.33;;
15153;SDS011;7677;41.896;25.004;2022-11-20T05:40:54;0.90;;;0.90;;
15153;SDS011;7677;41.896;25.004;2022-11-20T05:43:21;0.83;;;0.83;;
15153;SDS011;7677;41.896;25.004;2022-11-20T05:45:51;0.80;;;0.80;;
15153;SDS011;7677;41.896;25.004;2022-11-20T05:48:19;0.67;;;0.67;;
15153;SDS011;7677;41.896;25.004;2022-11-20T05:50:48;0.70;;;0.70;;
15153;SDS011;7677;41.896;25.004;2022-11-20T05:53:15;2.27;;;1.20;;
15153;SDS011;7677;41.896;25.004;2022-11-20T05:55:43;1.87;;;1.47;;
15153;SDS011;7677;41.896;25.004;2022-11-20T05:58:10;3.90;;;3.03;;
15153;SDS011;7677;41.896;25.004;2022-11-20T06:00:37;4.60;;;2.33;;
15153;SDS011;7677;41.896;25.004;2022-11-20T06:03:04;1.80;;;1.53;;
15153;SDS011;7677;41.896;25.004;2022-11-20T06:05:33;1.40;;;1.30;;
15153;SDS011;7677;41.896;25.004;2022-11-20T06:08:01;2.10;;;1.30;;
15153;SDS011;7677;41.896;25.004;2022-11-20T06:10:29;1.47;;;1.20;;
15153;SDS011;7677;41.896;25.004;2022-11-20T06:12:57;17.13;;;9.27;;
15153;SDS011;7677;41.896;25.004;2022-11-20T06:15:24;8.73;;;4.33;;
15153;SDS011;7677;41.896;25.004;2022-11-20T06:17:52;1.73;;;1.63;;
15153;SDS011;7677;41.896;25.004;2022-11-20T06:20:19;1.30;;;1.20;;
15153;SDS011;7677;41.896;25.004;2022-11-20T06:22:47;3.07;;;1.20;;
15153;SDS011;7677;41.896;25.004;2022-11-20T06:25:15;0.80;;;0.80;;
15153;SDS011;7677;41.896;25.004;2022-11-20T06:27:42;1.33;;;1.20;;
15153;SDS011;7677;41.896;25.004;2022-11-20T06:30:10;1.07;;;0.93;;
15153;SDS011;7677;41.896;25.004;2022-11-20T06:32:38;2.10;;;1.40;;
15153;SDS011;7677;41.896;25.004;2022-11-20T06:35:05;1.23;;;1.20;;
15153;SDS011;7677;41.896;25.004;2022-11-20T06:37:33;2.07;;;1.10;;
15153;SDS011;7677;41.896;25.004;2022-11-20T06:40:00;2.93;;;1.17;;
15153;SDS011;7677;41.896;25.004;2022-11-20T06:42:29;1.03;;;1.03;;
15153;SDS011;7677;41.896;25.004;2022-11-20T06:44:56;1.37;;;1.20;;
15153;SDS011;7677;41.896;25.004;2022-11-20T06:47:23;2.57;;;1.17;;
15153;SDS011;7677;41.896;25.004;2022-11-20T06:49:50;0.80;;;0.80;;
15153;SDS011;7677;41.896;25.004;2022-11-20T06:52:18;1.07;;;0.97;;
15153;SDS011;7677;41.896;25.004;2022-11-20T06:54:45;1.00;;;1.00;;
15153;SDS011;7677;41.896;25.004;2022-11-20T06:57:12;1.90;;;1.23;;
15153;SDS011;7677;41.896;25.004;2022-11-20T06:59:40;0.90;;;0.90;;
15153;SDS011;7677;41.896;25.004;2022-11-20T07:02:09;1.47;;;0.93;;
15153;SDS011;7677;41.896;25.004;2022-11-20T07:04:37;1.77;;;1.37;;
15153;SDS011;7677;41.896;25.004;2022-11-20T07:07:04;3.17;;;0.83;;
15153;SDS011;7677;41.896;25.004;2022-11-20T07:09:31;1.50;;;1.40;;
15153;SDS011;7677;41.896;25.004;2022-11-20T07:11:58;0.97;;;0.90;;
15153;SDS011;7677;41.896;25.004;2022-11-20T07:14:26;2.37;;;1.33;;
15153;SDS011;7677;41.896;25.004;2022-11-20T07:16:54;6.10;;;3.37;;
15153;SDS011;7677;41.896;25.004;2022-11-20T07:19:21;3.50;;;2.28;;
15153;SDS011;7677;41.896;25.004;2022-11-20T07:21:48;1.23;;;0.93;;
15153;SDS011;7677;41.896;25.004;2022-11-20T07:24:16;1.95;;;1.02;;
15153;SDS011;7677;41.896;25.004;2022-11-20T07:26:45;11.80;;;7.07;;
15153;SDS011;7677;41.896;25.004;2022-11-20T07:29:14;3.07;;;1.97;;
15153;SDS011;7677;41.896;25.004;2022-11-20T07:31:41;10.27;;;7.00;;
15153;SDS011;7677;41.896;25.004;2022-11-20T07:34:10;4.07;;;1.40;;
15153;SDS011;7677;41.896;25.004;2022-11-20T07:36:37;1.15;;;1.05;;
15153;SDS011;7677;41.896;25.004;2022-11-20T07:39:04;1.20;;;1.00;;
15153;SDS011;7677;41.896;25.004;2022-11-20T07:41:32;1.80;;;0.95;;
15153;SDS011;7677;41.896;25.004;2022-11-20T07:43:59;2.40;;;1.23;;
15153;SDS011;7677;41.896;25.004;2022-11-20T07:46:26;5.00;;;3.70;;
15153;SDS011;7677;41.896;25.004;2022-11-20T07:48:54;2.38;;;1.83;;
15153;SDS011;7677;41.896;25.004;2022-11-20T07:51:22;7.38;;;2.15;;
15153;SDS011;7677;41.896;25.004;2022-11-20T07:53:51;1.30;;;0.90;;
15153;SDS011;7677;41.896;25.004;2022-11-20T07:56:18;2.22;;;1.02;;
15153;SDS011;7677;41.896;25.004;2022-11-20T07:58:45;1.55;;;1.05;;
15153;SDS011;7677;41.896;25.004;2022-11-20T08:01:12;3.00;;;1.73;;
15153;SDS011;7677;41.896;25.004;2022-11-20T08:03:39;1.77;;;1.35;;
15153;SDS011;7677;41.896;25.004;2022-11-20T08:06:07;4.28;;;2.30;;
15153;SDS011;7677;41.896;25.004;2022-11-20T08:08:36;3.42;;;1.80;;
15153;SDS011;7677;41.896;25.004;2022-11-20T08:11:04;1.00;;;1.00;;
15153;SDS011;7677;41.896;25.004;2022-11-20T08:13:49;4.03;;;2.33;;
15153;SDS011;7677;41.896;25.004;2022-11-20T08:16:33;1.88;;;1.70;;
15153;SDS011;7677;41.896;25.004;2022-11-20T08:19:00;1.67;;;1.10;;
15153;SDS011;7677;41.896;25.004;2022-11-20T08:21:27;1.85;;;1.48;;
15153;SDS011;7677;41.896;25.004;2022-11-20T08:23:56;2.00;;;1.40;;
15153;SDS011;7677;41.896;25.004;2022-11-20T08:26:23;3.90;;;2.13;;
15153;SDS011;7677;41.896;25.004;2022-11-20T08:28:52;4.70;;;2.33;;
15153;SDS011;7677;41.896;25.004;2022-11-20T08:31:20;2.33;;;1.77;;
15153;SDS011;7677;41.896;25.004;2022-11-20T08:33:48;1.77;;;1.52;;
15153;SDS011;7677;41.896;25.004;2022-11-20T08:36:16;3.28;;;2.05;;
15153;SDS011;7677;41.896;25.004;2022-11-20T08:38:46;1.75;;;1.08;;
15153;SDS011;7677;41.896;25.004;2022-11-20T08:41:15;2.72;;;1.52;;
15153;SDS011;7677;41.896;25.004;2022-11-20T08:43:54;1.13;;;1.02;;
15153;SDS011;7677;41.896;25.004;2022-11-20T08:46:22;1.20;;;1.00;;
15153;SDS011;7677;41.896;25.004;2022-11-20T08:48:50;2.53;;;1.20;;
15153;SDS011;7677;41.896;25.004;2022-11-20T08:51:17;2.65;;;1.15;;
15153;SDS011;7677;41.896;25.004;2022-11-20T08:53:45;1.95;;;0.90;;
15153;SDS011;7677;41.896;25.004;2022-11-20T08:56:15;1.75;;;1.13;;
15153;SDS011;7677;41.896;25.004;2022-11-20T08:58:42;2.67;;;1.33;;
15153;SDS011;7677;41.896;25.004;2022-11-20T09:01:09;1.65;;;1.55;;
15153;SDS011;7677;41.896;25.004;2022-11-20T09:03:37;2.85;;;1.45;;
15153;SDS011;7677;41.896;25.004;2022-11-20T09:06:05;1.00;;;0.98;;
15153;SDS011;7677;41.896;25.004;2022-11-20T09:08:33;17.17;;;8.00;;
15153;SDS011;7677;41.896;25.004;2022-11-20T09:11:01;18.60;;;8.45;;
15153;SDS011;7677;41.896;25.004;2022-11-20T09:13:31;11.77;;;5.60;;
15153;SDS011;7677;41.896;25.004;2022-11-20T09:16:00;12.30;;;5.50;;
15153;SDS011;7677;41.896;25.004;2022-11-20T09:18:28;49.78;;;20.45;;
15153;SDS011;7677;41.896;25.004;2022-11-20T09:20:57;68.28;;;27.08;;
15153;SDS011;7677;41.896;25.004;2022-11-20T09:23:24;55.47;;;24.13;;
15153;SDS011;7677;41.896;25.004;2022-11-20T09:25:52;54.40;;;20.67;;
15153;SDS011;7677;41.896;25.004;2022-11-20T09:28:20;18.08;;;8.40;;
15153;SDS011;7677;41.896;25.004;2022-11-20T09:30:49;21.58;;;9.52;;
15153;SDS011;7677;41.896;25.004;2022-11-20T09:33:16;21.48;;;10.90;;
15153;SDS011;7677;41.896;25.004;2022-11-20T09:35:44;60.15;;;29.80;;
15153;SDS011;7677;41.896;25.004;2022-11-20T09:38:11;28.77;;;15.18;;
15153;SDS011;7677;41.896;25.004;2022-11-20T09:40:40;7.35;;;3.58;;
15153;SDS011;7677;41.896;25.004;2022-11-20T09:43:12;8.73;;;3.63;;
15153;SDS011;7677;41.896;25.004;2022-11-20T09:45:56;4.20;;;2.13;;
15153;SDS011;7677;41.896;25.004;2022-11-20T09:51:23;10.50;;;5.32;;
15153;SDS011;7677;41.896;25.004;2022-11-20T09:54:00;2.25;;;1.42;;
15153;SDS011;7677;41.896;25.004;2022-11-20T09:56:35;3.97;;;1.60;;
15153;SDS011;7677;41.896;25.004;2022-11-20T09:59:04;3.08;;;1.40;;
15153;SDS011;7677;41.896;25.004;2022-11-20T10:01:35;3.63;;;1.35;;
15153;SDS011;7677;41.896;25.004;2022-11-20T10:04:03;2.78;;;1.13;;
15153;SDS011;7677;41.896;25.004;2022-11-20T10:06:33;7.28;;;1.50;;
15153;SDS011;7677;41.896;25.004;2022-11-20T10:09:05;1.88;;;0.82;;
15153;SDS011;7677;41.896;25.004;2022-11-20T10:11:43;2.45;;;1.90;;
15153;SDS011;7677;41.896;25.004;2022-11-20T10:14:17;3.60;;;1.50;;
15153;SDS011;7677;41.896;25.004;2022-11-20T10:16:53;3.40;;;1.50;;
15153;SDS011;7677;41.896;25.004;2022-11-20T10:19:32;2.92;;;1.73;;
15153;SDS011;7677;41.896;25.004;2022-11-20T10:22:10;3.72;;;1.48;;
15153;SDS011;7677;41.896;25.004;2022-11-20T10:24:48;1.08;;;1.00;;
15153;SDS011;7677;41.896;25.004;2022-11-20T10:27:33;2.50;;;1.50;;
15153;SDS011;7677;41.896;25.004;2022-11-20T10:30:08;4.05;;;1.92;;
15153;SDS011;7677;41.896;25.004;2022-11-20T10:32:39;3.47;;;1.52;;
15153;SDS011;7677;41.896;25.004;2022-11-20T10:35:14;3.40;;;2.47;;
15153;SDS011;7677;41.896;25.004;2022-11-20T10:37:46;4.35;;;1.92;;
15153;SDS011;7677;41.896;25.004;2022-11-20T10:40:20;11.65;;;5.93;;
15153;SDS011;7677;41.896;25.004;2022-11-20T10:42:51;7.07;;;3.03;;
15153;SDS011;7677;41.896;25.004;2022-11-20T10:45:27;2.78;;;1.58;;
15153;SDS011;7677;41.896;25.004;2022-11-20T10:48:10;4.50;;;1.42;;
15153;SDS011;7677;41.896;25.004;2022-11-20T10:50:40;0.88;;;0.88;;
15153;SDS011;7677;41.896;25.004;2022-11-20T10:53:17;2.15;;;1.52;;
15153;SDS011;7677;41.896;25.004;2022-11-20T10:55:50;3.30;;;1.40;;
15153;SDS011;7677;41.896;25.004;2022-11-20T10:58:21;2.25;;;1.33;;
15153;SDS011;7677;41.896;25.004;2022-11-20T11:01:02;3.60;;;1.50;;
15153;SDS011;7677;41.896;25.004;2022-11-20T11:03:32;4.28;;;1.25;;
15153;SDS011;7677;41.896;25.004;2022-11-20T11:06:00;1.92;;;1.70;;
15153;SDS011;7677;41.896;25.004;2022-11-20T11:08:34;4.28;;;1.88;;
15153;SDS011;7677;41.896;25.004;2022-11-20T11:11:07;3.70;;;2.03;;
15153;SDS011;7677;41.896;25.004;2022-11-20T11:13:44;5.10;;;2.25;;
15153;SDS011;7677;41.896;25.004;2022-11-20T11:16:16;3.10;;;1.80;;
15153;SDS011;7677;41.896;25.004;2022-11-20T11:18:48;4.57;;;1.73;;
15153;SDS011;7677;41.896;25.004;2022-11-20T11:21:20;9.18;;;2.10;;
15153;SDS011;7677;41.896;25.004;2022-11-20T11:23:48;3.92;;;1.30;;
15153;SDS011;7677;41.896;25.004;2022-11-20T11:26:24;3.75;;;1.70;;
15153;SDS011;7677;41.896;25.004;2022-11-20T11:28:53;5.05;;;1.90;;
15153;SDS011;7677;41.896;25.004;2022-11-20T11:31:24;3.78;;;2.30;;
15153;SDS011;7677;41.896;25.004;2022-11-20T11:34:03;13.15;;;2.35;;
15153;SDS011;7677;41.896;25.004;2022-11-20T11:36:30;7.25;;;2.03;;
15153;SDS011;7677;41.896;25.004;2022-11-20T11:38:59;5.05;;;1.92;;
15153;SDS011;7677;41.896;25.004;2022-11-20T11:41:30;5.60;;;1.40;;
15153;SDS011;7677;41.896;25.004;2022-11-20T11:44:01;4.47;;;1.83;;
15153;SDS011;7677;41.896;25.004;2022-11-20T11:46:58;6.13;;;1.60;;
15153;SDS011;7677;41.896;25.004;2022-11-20T11:49:27;4.13;;;1.67;;
15153;SDS011;7677;41.896;25.004;2022-11-20T11:52:00;3.92;;;1.80;;
15153;SDS011;7677;41.896;25.004;2022-11-20T11:54:31;7.95;;;2.05;;
15153;SDS011;7677;41.896;25.004;2022-11-20T11:57:05;8.38;;;2.38;;
15153;SDS011;7677;41.896;25.004;2022-11-20T11:59:41;5.30;;;1.77;;
15153;SDS011;7677;41.896;25.004;2022-11-20T12:02:19;1.80;;;1.30;;
15153;SDS011;7677;41.896;25.004;2022-11-20T12:04:55;2.50;;;1.50;;
15153;SDS011;7677;41.896;25.004;2022-11-20T12:07:28;8.75;;;2.13;;
15153;SDS011;7677;41.896;25.004;2022-11-20T12:10:03;5.13;;;1.42;;
15153;SDS011;7677;41.896;25.004;2022-11-20T12:12:31;5.63;;;1.95;;
15153;SDS011;7677;41.896;25.004;2022-11-20T12:15:01;4.68;;;1.63;;
15153;SDS011;7677;41.896;25.004;2022-11-20T12:17:29;2.85;;;1.90;;
15153;SDS011;7677;41.896;25.004;2022-11-20T12:19:58;3.97;;;2.10;;
15153;SDS011;7677;41.896;25.004;2022-11-20T12:22:27;2.72;;;1.70;;
15153;SDS011;7677;41.896;25.004;2022-11-20T12:24:59;4.38;;;1.88;;
15153;SDS011;7677;41.896;25.004;2022-11-20T12:30:14;5.10;;;2.78;;
15153;SDS011;7677;41.896;25.004;2022-11-20T12:32:49;5.43;;;2.80;;
15153;SDS011;7677;41.896;25.004;2022-11-20T12:35:37;4.25;;;2.05;;
15153;SDS011;7677;41.896;25.004;2022-11-20T12:38:23;3.92;;;1.38;;
15153;SDS011;7677;41.896;25.004;2022-11-20T12:41:13;2.55;;;1.52;;
15153;SDS011;7677;41.896;25.004;2022-11-20T12:44:06;4.57;;;1.58;;
15153;SDS011;7677;41.896;25.004;2022-11-20T12:47:09;2.42;;;1.40;;
15153;SDS011;7677;41.896;25.004;2022-11-20T12:49:44;7.10;;;1.48;;
15153;SDS011;7677;41.896;25.004;2022-11-20T12:52:19;2.15;;;1.42;;
15153;SDS011;7677;41.896;25.004;2022-11-20T12:55:00;2.30;;;1.40;;
15153;SDS011;7677;41.896;25.004;2022-11-20T12:57:42;4.82;;;1.33;;
15153;SDS011;7677;41.896;25.004;2022-11-20T13:00:15;3.78;;;1.63;;
15153;SDS011;7677;41.896;25.004;2022-11-20T13:02:52;6.43;;;2.17;;
15153;SDS011;7677;41.896;25.004;2022-11-20T13:05:39;6.90;;;1.92;;
15153;SDS011;7677;41.896;25.004;2022-11-20T13:08:14;9.90;;;2.15;;
15153;SDS011;7677;41.896;25.004;2022-11-20T13:10:46;3.88;;;1.70;;
15153;SDS011;7677;41.896;25.004;2022-11-20T13:13:17;2.20;;;1.42;;
15153;SDS011;7677;41.896;25.004;2022-11-20T13:15:50;3.38;;;1.67;;
15153;SDS011;7677;41.896;25.004;2022-11-20T13:18:20;3.90;;;1.40;;
15153;SDS011;7677;41.896;25.004;2022-11-20T13:20:48;3.58;;;2.17;;
15153;SDS011;7677;41.896;25.004;2022-11-20T13:23:27;5.57;;;1.73;;
15153;SDS011;7677;41.896;25.004;2022-11-20T13:26:13;7.35;;;1.70;;
15153;SDS011;7677;41.896;25.004;2022-11-20T13:28:43;9.27;;;1.42;;
15153;SDS011;7677;41.896;25.004;2022-11-20T13:31:23;8.35;;;1.65;;
15153;SDS011;7677;41.896;25.004;2022-11-20T13:33:55;3.80;;;1.40;;
15153;SDS011;7677;41.896;25.004;2022-11-20T13:36:24;6.22;;;1.67;;
15153;SDS011;7677;41.896;25.004;2022-11-20T13:38:53;3.67;;;1.42;;
15153;SDS011;7677;41.896;25.004;2022-11-20T13:41:25;4.22;;;1.55;;
15153;SDS011;7677;41.896;25.004;2022-11-20T13:43:59;4.18;;;1.60;;
15153;SDS011;7677;41.896;25.004;2022-11-20T13:46:38;3.45;;;1.50;;
15153;SDS011;7677;41.896;25.004;2022-11-20T13:49:08;5.85;;;1.58;;
15153;SDS011;7677;41.896;25.004;2022-11-20T13:51:39;5.07;;;1.50;;
15153;SDS011;7677;41.896;25.004;2022-11-20T14:00:44;3.40;;;1.25;;
15153;SDS011;7677;41.896;25.004;2022-11-20T14:03:23;5.47;;;1.27;;
15153;SDS011;7677;41.896;25.004;2022-11-20T14:05:53;7.35;;;1.83;;
15153;SDS011;7677;41.896;25.004;2022-11-20T14:08:26;2.92;;;1.27;;
15153;SDS011;7677;41.896;25.004;2022-11-20T14:11:04;2.28;;;1.42;;
15153;SDS011;7677;41.896;25.004;2022-11-20T14:13:32;5.18;;;1.52;;
15153;SDS011;7677;41.896;25.004;2022-11-20T14:16:01;3.08;;;1.33;;
15153;SDS011;7677;41.896;25.004;2022-11-20T14:18:29;2.33;;;1.83;;
15153;SDS011;7677;41.896;25.004;2022-11-20T14:20:56;4.65;;;1.60;;
15153;SDS011;7677;41.896;25.004;2022-11-20T14:23:27;3.35;;;2.05;;
15153;SDS011;7677;41.896;25.004;2022-11-20T14:25:55;5.57;;;1.65;;
15153;SDS011;7677;41.896;25.004;2022-11-20T14:28:24;9.43;;;2.30;;
15153;SDS011;7677;41.896;25.004;2022-11-20T14:30:53;5.20;;;2.05;;
15153;SDS011;7677;41.896;25.004;2022-11-20T14:33:22;4.82;;;1.48;;
15153;SDS011;7677;41.896;25.004;2022-11-20T14:35:51;2.10;;;1.42;;
15153;SDS011;7677;41.896;25.004;2022-11-20T14:38:21;3.72;;;1.73;;
15153;SDS011;7677;41.896;25.004;2022-11-20T14:40:50;1.88;;;1.38;;
15153;SDS011;7677;41.896;25.004;2022-11-20T14:43:19;2.97;;;1.43;;
15153;SDS011;7677;41.896;25.004;2022-11-20T14:45:57;6.73;;;1.70;;
15153;SDS011;7677;41.896;25.004;2022-11-20T14:48:28;4.83;;;1.63;;
15153;SDS011;7677;41.896;25.004;2022-11-20T14:50:57;3.77;;;1.50;;
15153;SDS011;7677;41.896;25.004;2022-11-20T14:53:24;4.17;;;1.70;;
15153;SDS011;7677;41.896;25.004;2022-11-20T14:55:56;1.83;;;1.60;;
15153;SDS011;7677;41.896;25.004;2022-11-20T14:58:25;6.03;;;1.87;;
15153;SDS011;7677;41.896;25.004;2022-11-20T15:00:53;6.10;;;2.00;;
15153;SDS011;7677;41.896;25.004;2022-11-20T15:03:21;2.27;;;1.90;;
15153;SDS011;7677;41.896;25.004;2022-11-20T15:05:50;4.73;;;1.90;;
15153;SDS011;7677;41.896;25.004;2022-11-20T15:08:17;6.47;;;1.60;;
15153;SDS011;7677;41.896;25.004;2022-11-20T15:10:45;1.80;;;1.07;;
15153;SDS011;7677;41.896;25.004;2022-11-20T15:13:15;5.57;;;2.00;;
15153;SDS011;7677;41.896;25.004;2022-11-20T15:15:44;5.00;;;1.60;;